sensor_id;sensor_type;location;lat;lon;timestamp;temperature;humidity
77985;DHT22;67177;47.240;-1.546;2023-07-13T00:00:29;17.70;65.60
77985;DHT22;67177;47.240;-1.546;2023-07-13T00:02:56;17.70;65.70
77985;DHT22;67177;47.240;-1.546;2023-07-13T00:05:22;17.70;65.70
77985;DHT22;67177;47.240;-1.546;2023-07-13T00:07:49;17.70;65.80
77985;DHT22;67177;47.240;-1.546;2023-07-13T00:10:15;17.70;65.80
77985;DHT22;67177;47.240;-1.546;2023-07-13T00:12:40;17.70;65.80
77985;DHT22;67177;47.240;-1.546;2023-07-13T00:15:16;17.70;65.80
77985;DHT22;67177;47.240;-1.546;2023-07-13T00:17:42;17.70;65.90
77985;DHT22;67177;47.240;-1.546;2023-07-13T00:20:11;17.60;65.90
77985;DHT22;67177;47.240;-1.546;2023-07-13T00:22:37;17.60;66.00
77985;DHT22;67177;47.240;-1.546;2023-07-13T00:25:04;17.60;66.10
77985;DHT22;67177;47.240;-1.546;2023-07-13T00:27:29;17.60;66.10
77985;DHT22;67177;47.240;-1.546;2023-07-13T00:29:57;17.60;66.10
77985;DHT22;67177;47.240;-1.546;2023-07-13T00:32:23;17.60;66.10
77985;DHT22;67177;47.240;-1.546;2023-07-13T00:34:51;17.60;66.20
77985;DHT22;67177;47.240;-1.546;2023-07-13T00:37:17;17.60;66.20
77985;DHT22;67177;47.240;-1.546;2023-07-13T00:39:43;17.50;66.40
77985;DHT22;67177;47.240;-1.546;2023-07-13T00:42:09;17.50;66.50
77985;DHT22;67177;47.240;-1.546;2023-07-13T00:44:34;17.50;66.50
77985;DHT22;67177;47.240;-1.546;2023-07-13T00:47:00;17.50;66.50
77985;DHT22;67177;47.240;-1.546;2023-07-13T00:49:27;17.50;66.50
77985;DHT22;67177;47.240;-1.546;2023-07-13T00:52:05;17.50;66.60
77985;DHT22;67177;47.240;-1.546;2023-07-13T00:54:41;17.50;66.60
77985;DHT22;67177;47.240;-1.546;2023-07-13T00:57:14;17.50;66.60
77985;DHT22;67177;47.240;-1.546;2023-07-13T00:59:42;17.50;66.60
77985;DHT22;67177;47.240;-1.546;2023-07-13T01:02:09;17.50;66.70
77985;DHT22;67177;47.240;-1.546;2023-07-13T01:04:35;17.40;66.70
77985;DHT22;67177;47.240;-1.546;2023-07-13T01:07:00;17.40;66.80
77985;DHT22;67177;47.240;-1.546;2023-07-13T01:09:27;17.40;66.80
77985;DHT22;67177;47.240;-1.546;2023-07-13T01:11:52;17.40;66.80
77985;DHT22;67177;47.240;-1.546;2023-07-13T01:14:19;17.40;66.90
77985;DHT22;67177;47.240;-1.546;2023-07-13T01:16:46;17.40;66.90
77985;DHT22;67177;47.240;-1.546;2023-07-13T01:22:10;17.40;67.00
77985;DHT22;67177;47.240;-1.546;2023-07-13T01:24:38;17.30;67.00
77985;DHT22;67177;47.240;-1.546;2023-07-13T01:27:05;17.30;67.00
77985;DHT22;67177;47.240;-1.546;2023-07-13T01:29:33;17.30;67.10
77985;DHT22;67177;47.240;-1.546;2023-07-13T01:31:59;17.30;67.20
77985;DHT22;67177;47.240;-1.546;2023-07-13T01:34:27;17.30;67.40
77985;DHT22;67177;47.240;-1.546;2023-07-13T01:36:53;17.30;67.30
77985;DHT22;67177;47.240;-1.546;2023-07-13T01:39:22;17.20;67.40
77985;DHT22;67177;47.240;-1.546;2023-07-13T01:41:48;17.20;67.40
77985;DHT22;67177;47.240;-1.546;2023-07-13T01:44:14;17.20;67.40
77985;DHT22;67177;47.240;-1.546;2023-07-13T01:46:39;17.20;67.40
77985;DHT22;67177;47.240;-1.546;2023-07-13T01:49:05;17.20;67.30
77985;DHT22;67177;47.240;-1.546;2023-07-13T01:51:31;17.20;67.40
77985;DHT22;67177;47.240;-1.546;2023-07-13T01:53:56;17.20;67.30
77985;DHT22;67177;47.240;-1.546;2023-07-13T01:56:22;17.20;67.30
77985;DHT22;67177;47.240;-1.546;2023-07-13T01:58:48;17.20;67.40
77985;DHT22;67177;47.240;-1.546;2023-07-13T02:01:14;17.20;67.40
77985;DHT22;67177;47.240;-1.546;2023-07-13T02:03:40;17.20;67.40
77985;DHT22;67177;47.240;-1.546;2023-07-13T02:06:06;17.20;67.50
77985;DHT22;67177;47.240;-1.546;2023-07-13T02:08:32;17.10;67.60
77985;DHT22;67177;47.240;-1.546;2023-07-13T02:10:58;17.10;67.50
77985;DHT22;67177;47.240;-1.546;2023-07-13T02:13:24;17.10;67.70
77985;DHT22;67177;47.240;-1.546;2023-07-13T02:15:51;17.10;67.80
77985;DHT22;67177;47.240;-1.546;2023-07-13T02:18:16;17.10;67.90
77985;DHT22;67177;47.240;-1.546;2023-07-13T02:20:43;17.10;67.90
77985;DHT22;67177;47.240;-1.546;2023-07-13T02:23:09;17.10;67.90
77985;DHT22;67177;47.240;-1.546;2023-07-13T02:25:35;17.10;68.00
77985;DHT22;67177;47.240;-1.546;2023-07-13T02:28:00;17.00;68.10
77985;DHT22;67177;47.240;-1.546;2023-07-13T02:30:27;17.00;68.20
77985;DHT22;67177;47.240;-1.546;2023-07-13T02:32:55;17.00;68.20
77985;DHT22;67177;47.240;-1.546;2023-07-13T02:35:21;17.00;68.20
77985;DHT22;67177;47.240;-1.546;2023-07-13T02:37:46;17.00;68.30
77985;DHT22;67177;47.240;-1.546;2023-07-13T02:40:12;17.00;68.40
77985;DHT22;67177;47.240;-1.546;2023-07-13T02:42:38;16.90;68.30
77985;DHT22;67177;47.240;-1.546;2023-07-13T02:45:04;16.90;68.30
77985;DHT22;67177;47.240;-1.546;2023-07-13T02:47:32;16.90;68.30
77985;DHT22;67177;47.240;-1.546;2023-07-13T02:49:57;16.90;68.50
77985;DHT22;67177;47.240;-1.546;2023-07-13T02:52:23;16.90;68.50
77985;DHT22;67177;47.240;-1.546;2023-07-13T02:54:49;16.90;68.60
77985;DHT22;67177;47.240;-1.546;2023-07-13T02:57:15;16.90;68.60
77985;DHT22;67177;47.240;-1.546;2023-07-13T02:59:41;16.80;68.60
77985;DHT22;67177;47.240;-1.546;2023-07-13T03:02:07;16.80;68.70
77985;DHT22;67177;47.240;-1.546;2023-07-13T03:04:34;16.80;68.70
77985;DHT22;67177;47.240;-1.546;2023-07-13T03:07:00;16.80;68.70
77985;DHT22;67177;47.240;-1.546;2023-07-13T03:09:26;16.80;68.80
77985;DHT22;67177;47.240;-1.546;2023-07-13T03:11:55;16.80;68.90
77985;DHT22;67177;47.240;-1.546;2023-07-13T03:14:21;16.80;69.00
77985;DHT22;67177;47.240;-1.546;2023-07-13T03:16:47;16.80;68.90
77985;DHT22;67177;47.240;-1.546;2023-07-13T03:19:13;16.80;68.90
77985;DHT22;67177;47.240;-1.546;2023-07-13T03:21:39;16.80;68.90
77985;DHT22;67177;47.240;-1.546;2023-07-13T03:24:04;16.80;69.00
77985;DHT22;67177;47.240;-1.546;2023-07-13T03:26:30;16.80;69.00
77985;DHT22;67177;47.240;-1.546;2023-07-13T03:28:57;16.80;68.90
77985;DHT22;67177;47.240;-1.546;2023-07-13T03:31:26;16.80;69.00
77985;DHT22;67177;47.240;-1.546;2023-07-13T03:33:54;16.80;69.00
77985;DHT22;67177;47.240;-1.546;2023-07-13T03:36:25;16.80;69.00
77985;DHT22;67177;47.240;-1.546;2023-07-13T03:38:53;16.80;69.10
77985;DHT22;67177;47.240;-1.546;2023-07-13T03:41:20;16.80;69.00
77985;DHT22;67177;47.240;-1.546;2023-07-13T03:43:46;16.70;69.10
77985;DHT22;67177;47.240;-1.546;2023-07-13T03:46:13;16.70;69.20
77985;DHT22;67177;47.240;-1.546;2023-07-13T03:48:40;16.70;69.40
77985;DHT22;67177;47.240;-1.546;2023-07-13T03:51:08;16.70;69.30
77985;DHT22;67177;47.240;-1.546;2023-07-13T03:53:37;16.70;69.50
77985;DHT22;67177;47.240;-1.546;2023-07-13T03:56:03;16.70;69.50
77985;DHT22;67177;47.240;-1.546;2023-07-13T03:58:34;16.70;69.40
77985;DHT22;67177;47.240;-1.546;2023-07-13T04:01:01;16.70;69.50
77985;DHT22;67177;47.240;-1.546;2023-07-13T04:03:28;16.70;69.50
77985;DHT22;67177;47.240;-1.546;2023-07-13T04:05:58;16.70;69.60
77985;DHT22;67177;47.240;-1.546;2023-07-13T04:08:26;16.70;69.60
77985;DHT22;67177;47.240;-1.546;2023-07-13T04:10:52;16.70;69.60
77985;DHT22;67177;47.240;-1.546;2023-07-13T04:13:18;16.70;69.60
77985;DHT22;67177;47.240;-1.546;2023-07-13T04:15:43;16.70;69.60
77985;DHT22;67177;47.240;-1.546;2023-07-13T04:18:09;16.70;69.70
77985;DHT22;67177;47.240;-1.546;2023-07-13T04:20:34;16.80;69.60
77985;DHT22;67177;47.240;-1.546;2023-07-13T04:23:00;16.80;69.60
77985;DHT22;67177;47.240;-1.546;2023-07-13T04:25:26;16.80;69.70
77985;DHT22;67177;47.240;-1.546;2023-07-13T04:27:52;16.80;69.60
77985;DHT22;67177;47.240;-1.546;2023-07-13T04:30:19;16.80;69.80
77985;DHT22;67177;47.240;-1.546;2023-07-13T04:32:44;16.90;69.80
77985;DHT22;67177;47.240;-1.546;2023-07-13T04:35:10;16.90;69.80
77985;DHT22;67177;47.240;-1.546;2023-07-13T04:37:36;16.90;69.70
77985;DHT22;67177;47.240;-1.546;2023-07-13T04:40:03;17.00;69.70
77985;DHT22;67177;47.240;-1.546;2023-07-13T04:42:29;17.00;69.80
77985;DHT22;67177;47.240;-1.546;2023-07-13T04:44:55;17.10;69.70
77985;DHT22;67177;47.240;-1.546;2023-07-13T04:47:21;17.10;69.70
77985;DHT22;67177;47.240;-1.546;2023-07-13T04:49:46;17.20;69.60
77985;DHT22;67177;47.240;-1.546;2023-07-13T04:52:12;17.20;69.60
77985;DHT22;67177;47.240;-1.546;2023-07-13T04:54:38;17.20;69.60
77985;DHT22;67177;47.240;-1.546;2023-07-13T04:57:05;17.30;69.50
77985;DHT22;67177;47.240;-1.546;2023-07-13T04:59:33;17.30;69.40
77985;DHT22;67177;47.240;-1.546;2023-07-13T05:01:59;17.30;69.50
77985;DHT22;67177;47.240;-1.546;2023-07-13T05:04:26;17.40;69.50
77985;DHT22;67177;47.240;-1.546;2023-07-13T05:06:52;17.40;69.60
77985;DHT22;67177;47.240;-1.546;2023-07-13T05:09:18;17.40;69.70
77985;DHT22;67177;47.240;-1.546;2023-07-13T05:11:44;17.50;69.80
77985;DHT22;67177;47.240;-1.546;2023-07-13T05:14:09;17.50;70.00
77985;DHT22;67177;47.240;-1.546;2023-07-13T05:16:35;17.50;70.00
77985;DHT22;67177;47.240;-1.546;2023-07-13T05:19:02;17.60;70.20
77985;DHT22;67177;47.240;-1.546;2023-07-13T05:21:28;17.60;70.30
77985;DHT22;67177;47.240;-1.546;2023-07-13T05:23:54;17.60;70.30
77985;DHT22;67177;47.240;-1.546;2023-07-13T05:26:19;17.70;70.30
77985;DHT22;67177;47.240;-1.546;2023-07-13T05:28:46;17.70;70.30
77985;DHT22;67177;47.240;-1.546;2023-07-13T05:31:12;17.80;70.30
77985;DHT22;67177;47.240;-1.546;2023-07-13T05:33:38;17.80;70.50
77985;DHT22;67177;47.240;-1.546;2023-07-13T05:36:04;17.80;70.50
77985;DHT22;67177;47.240;-1.546;2023-07-13T05:38:30;17.90;70.50
77985;DHT22;67177;47.240;-1.546;2023-07-13T05:40:56;17.90;70.50
77985;DHT22;67177;47.240;-1.546;2023-07-13T05:43:22;17.90;70.40
77985;DHT22;67177;47.240;-1.546;2023-07-13T05:45:48;17.90;70.30
77985;DHT22;67177;47.240;-1.546;2023-07-13T05:48:15;18.00;70.30
77985;DHT22;67177;47.240;-1.546;2023-07-13T05:50:41;18.00;70.20
77985;DHT22;67177;47.240;-1.546;2023-07-13T05:53:06;18.00;70.10
77985;DHT22;67177;47.240;-1.546;2023-07-13T05:55:32;18.10;70.10
77985;DHT22;67177;47.240;-1.546;2023-07-13T05:57:59;18.10;70.00
77985;DHT22;67177;47.240;-1.546;2023-07-13T06:00:26;18.10;70.00
77985;DHT22;67177;47.240;-1.546;2023-07-13T06:02:52;18.20;69.90
77985;DHT22;67177;47.240;-1.546;2023-07-13T06:05:18;18.20;69.90
77985;DHT22;67177;47.240;-1.546;2023-07-13T06:07:43;18.30;69.90
77985;DHT22;67177;47.240;-1.546;2023-07-13T06:10:09;18.30;69.80
77985;DHT22;67177;47.240;-1.546;2023-07-13T06:12:35;18.30;69.90
77985;DHT22;67177;47.240;-1.546;2023-07-13T06:15:01;18.40;69.80
77985;DHT22;67177;47.240;-1.546;2023-07-13T06:17:27;18.40;69.70
77985;DHT22;67177;47.240;-1.546;2023-07-13T06:19:52;18.50;69.60
77985;DHT22;67177;47.240;-1.546;2023-07-13T06:22:18;18.50;69.60
77985;DHT22;67177;47.240;-1.546;2023-07-13T06:24:43;18.50;69.60
77985;DHT22;67177;47.240;-1.546;2023-07-13T06:27:09;18.60;69.50
77985;DHT22;67177;47.240;-1.546;2023-07-13T06:29:35;18.70;69.40
77985;DHT22;67177;47.240;-1.546;2023-07-13T06:32:01;18.80;69.20
77985;DHT22;67177;47.240;-1.546;2023-07-13T06:34:26;18.90;69.10
77985;DHT22;67177;47.240;-1.546;2023-07-13T06:36:52;19.00;68.90
77985;DHT22;67177;47.240;-1.546;2023-07-13T06:39:18;19.10;68.80
77985;DHT22;67177;47.240;-1.546;2023-07-13T06:41:43;19.20;68.70
77985;DHT22;67177;47.240;-1.546;2023-07-13T06:44:09;19.20;68.50
77985;DHT22;67177;47.240;-1.546;2023-07-13T06:46:35;19.20;68.40
77985;DHT22;67177;47.240;-1.546;2023-07-13T06:49:00;19.20;68.40
77985;DHT22;67177;47.240;-1.546;2023-07-13T06:51:26;19.30;68.40
77985;DHT22;67177;47.240;-1.546;2023-07-13T06:53:52;19.30;68.20
77985;DHT22;67177;47.240;-1.546;2023-07-13T06:56:18;19.40;68.20
77985;DHT22;67177;47.240;-1.546;2023-07-13T06:58:43;19.40;68.10
77985;DHT22;67177;47.240;-1.546;2023-07-13T07:01:09;19.50;67.90
77985;DHT22;67177;47.240;-1.546;2023-07-13T07:03:35;19.60;67.70
77985;DHT22;67177;47.240;-1.546;2023-07-13T07:06:16;19.60;67.60
77985;DHT22;67177;47.240;-1.546;2023-07-13T07:08:42;19.70;67.60
77985;DHT22;67177;47.240;-1.546;2023-07-13T07:11:13;19.70;67.50
77985;DHT22;67177;47.240;-1.546;2023-07-13T07:13:40;19.80;67.30
77985;DHT22;67177;47.240;-1.546;2023-07-13T07:16:05;20.00;67.00
77985;DHT22;67177;47.240;-1.546;2023-07-13T07:18:32;20.20;66.80
77985;DHT22;67177;47.240;-1.546;2023-07-13T07:20:57;20.40;66.40
77985;DHT22;67177;47.240;-1.546;2023-07-13T07:23:23;20.70;66.00
77985;DHT22;67177;47.240;-1.546;2023-07-13T07:25:49;20.90;65.80
77985;DHT22;67177;47.240;-1.546;2023-07-13T07:28:15;21.10;65.50
77985;DHT22;67177;47.240;-1.546;2023-07-13T07:30:47;21.20;65.10
77985;DHT22;67177;47.240;-1.546;2023-07-13T07:33:14;21.30;65.00
77985;DHT22;67177;47.240;-1.546;2023-07-13T07:35:40;21.40;64.90
77985;DHT22;67177;47.240;-1.546;2023-07-13T07:38:06;21.50;64.70
77985;DHT22;67177;47.240;-1.546;2023-07-13T07:40:31;21.60;64.20
77985;DHT22;67177;47.240;-1.546;2023-07-13T07:42:57;21.80;64.00
77985;DHT22;67177;47.240;-1.546;2023-07-13T07:45:23;21.90;63.90
77985;DHT22;67177;47.240;-1.546;2023-07-13T07:47:49;21.90;63.80
77985;DHT22;67177;47.240;-1.546;2023-07-13T07:50:15;21.90;63.60
77985;DHT22;67177;47.240;-1.546;2023-07-13T07:52:41;21.90;63.50
77985;DHT22;67177;47.240;-1.546;2023-07-13T07:55:08;21.70;63.40
77985;DHT22;67177;47.240;-1.546;2023-07-13T07:57:34;21.60;63.40
77985;DHT22;67177;47.240;-1.546;2023-07-13T07:59:59;21.50;63.30
77985;DHT22;67177;47.240;-1.546;2023-07-13T08:02:26;21.60;63.20
77985;DHT22;67177;47.240;-1.546;2023-07-13T08:04:51;21.80;63.10
77985;DHT22;67177;47.240;-1.546;2023-07-13T08:07:18;22.00;62.50
77985;DHT22;67177;47.240;-1.546;2023-07-13T08:09:43;22.10;62.30
77985;DHT22;67177;47.240;-1.546;2023-07-13T08:12:09;22.20;62.20
77985;DHT22;67177;47.240;-1.546;2023-07-13T08:14:35;22.40;61.80
77985;DHT22;67177;47.240;-1.546;2023-07-13T08:17:01;22.40;61.80
77985;DHT22;67177;47.240;-1.546;2023-07-13T08:19:27;22.30;62.00
77985;DHT22;67177;47.240;-1.546;2023-07-13T08:21:54;22.30;61.90
77985;DHT22;67177;47.240;-1.546;2023-07-13T08:24:22;22.40;61.70
77985;DHT22;67177;47.240;-1.546;2023-07-13T08:26:48;22.40;61.70
77985;DHT22;67177;47.240;-1.546;2023-07-13T08:29:14;22.60;61.40
77985;DHT22;67177;47.240;-1.546;2023-07-13T08:31:39;22.80;61.00
77985;DHT22;67177;47.240;-1.546;2023-07-13T08:34:05;22.90;60.40
77985;DHT22;67177;47.240;-1.546;2023-07-13T08:36:31;23.00;60.20
77985;DHT22;67177;47.240;-1.546;2023-07-13T08:38:57;23.10;60.10
77985;DHT22;67177;47.240;-1.546;2023-07-13T08:41:23;23.00;60.30
77985;DHT22;67177;47.240;-1.546;2023-07-13T08:43:51;22.70;60.80
77985;DHT22;67177;47.240;-1.546;2023-07-13T08:46:25;22.50;60.80
77985;DHT22;67177;47.240;-1.546;2023-07-13T08:49:22;22.30;61.10
77985;DHT22;67177;47.240;-1.546;2023-07-13T08:51:51;22.10;61.30
77985;DHT22;67177;47.240;-1.546;2023-07-13T08:56:45;22.20;60.60
77985;DHT22;67177;47.240;-1.546;2023-07-13T08:59:18;22.20;60.20
77985;DHT22;67177;47.240;-1.546;2023-07-13T09:04:54;21.80;59.90
77985;DHT22;67177;47.240;-1.546;2023-07-13T09:10:21;21.40;59.90
77985;DHT22;67177;47.240;-1.546;2023-07-13T09:12:51;21.30;59.60
77985;DHT22;67177;47.240;-1.546;2023-07-13T09:15:28;21.30;59.40
77985;DHT22;67177;47.240;-1.546;2023-07-13T09:20:51;22.00;58.90
77985;DHT22;67177;47.240;-1.546;2023-07-13T09:23:21;22.50;58.60
77985;DHT22;67177;47.240;-1.546;2023-07-13T09:25:49;22.80;58.30
77985;DHT22;67177;47.240;-1.546;2023-07-13T09:28:28;23.00;58.10
77985;DHT22;67177;47.240;-1.546;2023-07-13T09:33:39;22.90;58.00
77985;DHT22;67177;47.240;-1.546;2023-07-13T09:38:43;22.80;57.90
77985;DHT22;67177;47.240;-1.546;2023-07-13T09:41:19;22.70;57.60
77985;DHT22;67177;47.240;-1.546;2023-07-13T09:44:08;22.70;57.40
77985;DHT22;67177;47.240;-1.546;2023-07-13T09:46:38;22.70;57.40
77985;DHT22;67177;47.240;-1.546;2023-07-13T09:49:04;22.60;57.10
77985;DHT22;67177;47.240;-1.546;2023-07-13T09:51:30;22.40;57.20
77985;DHT22;67177;47.240;-1.546;2023-07-13T09:53:56;22.30;57.20
77985;DHT22;67177;47.240;-1.546;2023-07-13T09:56:25;22.20;56.90
77985;DHT22;67177;47.240;-1.546;2023-07-13T09:58:51;22.10;56.90
77985;DHT22;67177;47.240;-1.546;2023-07-13T10:01:32;22.20;57.00
77985;DHT22;67177;47.240;-1.546;2023-07-13T10:03:58;22.20;57.10
77985;DHT22;67177;47.240;-1.546;2023-07-13T10:06:24;22.20;56.90
77985;DHT22;67177;47.240;-1.546;2023-07-13T10:08:52;22.20;57.00
77985;DHT22;67177;47.240;-1.546;2023-07-13T10:11:24;22.40;56.80
77985;DHT22;67177;47.240;-1.546;2023-07-13T10:14:15;22.80;56.50
77985;DHT22;67177;47.240;-1.546;2023-07-13T10:16:43;23.00;56.40
77985;DHT22;67177;47.240;-1.546;2023-07-13T10:19:17;22.90;56.50
77985;DHT22;67177;47.240;-1.546;2023-07-13T10:21:59;22.70;56.30
77985;DHT22;67177;47.240;-1.546;2023-07-13T10:24:29;22.60;55.10
77985;DHT22;67177;47.240;-1.546;2023-07-13T10:29:36;23.10;53.70
77985;DHT22;67177;47.240;-1.546;2023-07-13T10:32:09;23.30;53.80
77985;DHT22;67177;47.240;-1.546;2023-07-13T10:34:36;23.40;53.50
77985;DHT22;67177;47.240;-1.546;2023-07-13T10:37:03;23.40;53.00
77985;DHT22;67177;47.240;-1.546;2023-07-13T10:39:30;23.50;52.90
77985;DHT22;67177;47.240;-1.546;2023-07-13T10:42:06;23.60;53.10
77985;DHT22;67177;47.240;-1.546;2023-07-13T10:44:35;23.90;52.50
77985;DHT22;67177;47.240;-1.546;2023-07-13T10:47:01;24.20;51.60
77985;DHT22;67177;47.240;-1.546;2023-07-13T10:49:30;24.40;51.70
77985;DHT22;67177;47.240;-1.546;2023-07-13T10:51:56;24.50;51.50
77985;DHT22;67177;47.240;-1.546;2023-07-13T10:54:31;24.60;50.70
77985;DHT22;67177;47.240;-1.546;2023-07-13T10:57:20;24.50;50.80
77985;DHT22;67177;47.240;-1.546;2023-07-13T10:59:48;24.40;50.90
77985;DHT22;67177;47.240;-1.546;2023-07-13T11:04:49;24.00;50.90
77985;DHT22;67177;47.240;-1.546;2023-07-13T11:07:30;23.80;50.90
77985;DHT22;67177;47.240;-1.546;2023-07-13T11:10:04;23.60;51.10
77985;DHT22;67177;47.240;-1.546;2023-07-13T11:12:53;23.60;51.20
77985;DHT22;67177;47.240;-1.546;2023-07-13T11:15:43;23.60;51.20
77985;DHT22;67177;47.240;-1.546;2023-07-13T11:18:21;24.00;50.70
77985;DHT22;67177;47.240;-1.546;2023-07-13T11:20:48;24.30;50.70
77985;DHT22;67177;47.240;-1.546;2023-07-13T11:25:42;24.20;50.90
77985;DHT22;67177;47.240;-1.546;2023-07-13T11:33:28;23.60;50.20
77985;DHT22;67177;47.240;-1.546;2023-07-13T11:36:15;23.40;50.20
77985;DHT22;67177;47.240;-1.546;2023-07-13T11:38:43;23.30;50.30
77985;DHT22;67177;47.240;-1.546;2023-07-13T11:41:18;23.40;50.10
77985;DHT22;67177;47.240;-1.546;2023-07-13T11:43:45;23.50;50.20
77985;DHT22;67177;47.240;-1.546;2023-07-13T11:46:23;23.50;50.30
77985;DHT22;67177;47.240;-1.546;2023-07-13T11:48:50;23.50;50.50
77985;DHT22;67177;47.240;-1.546;2023-07-13T11:53:54;23.80;49.80
77985;DHT22;67177;47.240;-1.546;2023-07-13T11:56:22;23.90;49.30
77985;DHT22;67177;47.240;-1.546;2023-07-13T11:58:54;23.90;49.50
77985;DHT22;67177;47.240;-1.546;2023-07-13T12:01:24;23.90;49.20
77985;DHT22;67177;47.240;-1.546;2023-07-13T12:03:51;24.10;48.80
77985;DHT22;67177;47.240;-1.546;2023-07-13T12:06:30;24.10;48.50
77985;DHT22;67177;47.240;-1.546;2023-07-13T12:09:01;24.20;48.60
77985;DHT22;67177;47.240;-1.546;2023-07-13T12:11:29;24.20;48.50
77985;DHT22;67177;47.240;-1.546;2023-07-13T12:13:55;24.30;48.20
77985;DHT22;67177;47.240;-1.546;2023-07-13T12:18:52;24.50;47.90
77985;DHT22;67177;47.240;-1.546;2023-07-13T12:21:19;24.50;48.00
77985;DHT22;67177;47.240;-1.546;2023-07-13T12:23:47;24.70;47.50
77985;DHT22;67177;47.240;-1.546;2023-07-13T12:26:15;24.80;47.30
77985;DHT22;67177;47.240;-1.546;2023-07-13T12:28:49;24.90;47.00
77985;DHT22;67177;47.240;-1.546;2023-07-13T12:34:06;24.80;46.20
77985;DHT22;67177;47.240;-1.546;2023-07-13T12:36:34;24.70;46.20
77985;DHT22;67177;47.240;-1.546;2023-07-13T12:39:12;24.60;46.40
77985;DHT22;67177;47.240;-1.546;2023-07-13T12:41:38;24.40;46.20
77985;DHT22;67177;47.240;-1.546;2023-07-13T12:44:09;24.20;46.20
77985;DHT22;67177;47.240;-1.546;2023-07-13T12:46:35;24.20;46.00
77985;DHT22;67177;47.240;-1.546;2023-07-13T12:49:00;24.20;46.00
77985;DHT22;67177;47.240;-1.546;2023-07-13T12:51:32;24.10;45.80
77985;DHT22;67177;47.240;-1.546;2023-07-13T12:54:11;24.10;45.80
77985;DHT22;67177;47.240;-1.546;2023-07-13T12:56:38;24.10;45.30
77985;DHT22;67177;47.240;-1.546;2023-07-13T12:59:04;24.10;45.40
77985;DHT22;67177;47.240;-1.546;2023-07-13T13:01:33;24.30;45.20
77985;DHT22;67177;47.240;-1.546;2023-07-13T13:04:02;24.50;45.10
77985;DHT22;67177;47.240;-1.546;2023-07-13T13:06:32;24.60;45.10
77985;DHT22;67177;47.240;-1.546;2023-07-13T13:09:01;24.40;45.20
77985;DHT22;67177;47.240;-1.546;2023-07-13T13:11:29;24.40;44.80
77985;DHT22;67177;47.240;-1.546;2023-07-13T13:13:55;24.40;44.80
77985;DHT22;67177;47.240;-1.546;2023-07-13T13:16:22;24.40;44.80
77985;DHT22;67177;47.240;-1.546;2023-07-13T13:18:49;24.30;44.70
77985;DHT22;67177;47.240;-1.546;2023-07-13T13:21:16;24.20;44.70
77985;DHT22;67177;47.240;-1.546;2023-07-13T13:23:42;24.20;44.40
77985;DHT22;67177;47.240;-1.546;2023-07-13T13:26:14;24.20;44.20
77985;DHT22;67177;47.240;-1.546;2023-07-13T13:28:42;24.20;44.50
77985;DHT22;67177;47.240;-1.546;2023-07-13T13:31:09;24.10;44.40
77985;DHT22;67177;47.240;-1.546;2023-07-13T13:33:38;24.10;44.50
77985;DHT22;67177;47.240;-1.546;2023-07-13T13:36:20;24.10;44.20
77985;DHT22;67177;47.240;-1.546;2023-07-13T13:38:48;24.10;44.10
77985;DHT22;67177;47.240;-1.546;2023-07-13T13:41:14;24.10;44.20
77985;DHT22;67177;47.240;-1.546;2023-07-13T13:43:41;24.20;44.40
77985;DHT22;67177;47.240;-1.546;2023-07-13T13:46:19;24.20;44.30
77985;DHT22;67177;47.240;-1.546;2023-07-13T13:48:46;24.20;44.50
77985;DHT22;67177;47.240;-1.546;2023-07-13T13:51:15;24.10;44.40
77985;DHT22;67177;47.240;-1.546;2023-07-13T13:53:41;24.20;44.20
77985;DHT22;67177;47.240;-1.546;2023-07-13T13:56:08;24.10;44.20
77985;DHT22;67177;47.240;-1.546;2023-07-13T13:58:33;24.10;44.20
77985;DHT22;67177;47.240;-1.546;2023-07-13T14:00:59;24.00;44.10
77985;DHT22;67177;47.240;-1.546;2023-07-13T14:03:26;24.00;44.10
77985;DHT22;67177;47.240;-1.546;2023-07-13T14:05:54;24.00;44.20
77985;DHT22;67177;47.240;-1.546;2023-07-13T14:08:21;24.00;44.40
77985;DHT22;67177;47.240;-1.546;2023-07-13T14:10:52;24.00;44.40
77985;DHT22;67177;47.240;-1.546;2023-07-13T14:13:28;24.00;44.40
77985;DHT22;67177;47.240;-1.546;2023-07-13T14:15:57;24.10;44.10
77985;DHT22;67177;47.240;-1.546;2023-07-13T14:18:22;24.30;43.90
77985;DHT22;67177;47.240;-1.546;2023-07-13T14:20:49;24.50;43.90
77985;DHT22;67177;47.240;-1.546;2023-07-13T14:23:17;24.60;43.70
77985;DHT22;67177;47.240;-1.546;2023-07-13T14:25:46;24.60;43.30
77985;DHT22;67177;47.240;-1.546;2023-07-13T14:28:25;24.60;42.80
77985;DHT22;67177;47.240;-1.546;2023-07-13T14:30:51;24.60;42.60
77985;DHT22;67177;47.240;-1.546;2023-07-13T14:33:17;24.50;42.70
77985;DHT22;67177;47.240;-1.546;2023-07-13T14:35:43;24.40;42.80
77985;DHT22;67177;47.240;-1.546;2023-07-13T14:38:17;24.30;42.70
77985;DHT22;67177;47.240;-1.546;2023-07-13T14:40:43;24.30;42.80
77985;DHT22;67177;47.240;-1.546;2023-07-13T14:43:14;24.20;43.00
77985;DHT22;67177;47.240;-1.546;2023-07-13T14:45:42;24.20;43.10
77985;DHT22;67177;47.240;-1.546;2023-07-13T14:48:22;24.10;43.30
77985;DHT22;67177;47.240;-1.546;2023-07-13T14:50:58;24.00;43.60
77985;DHT22;67177;47.240;-1.546;2023-07-13T14:53:27;24.00;43.60
77985;DHT22;67177;47.240;-1.546;2023-07-13T14:55:53;24.00;43.70
77985;DHT22;67177;47.240;-1.546;2023-07-13T14:58:19;24.00;43.80
77985;DHT22;67177;47.240;-1.546;2023-07-13T15:00:45;24.10;43.70
77985;DHT22;67177;47.240;-1.546;2023-07-13T15:03:21;24.10;43.60
77985;DHT22;67177;47.240;-1.546;2023-07-13T15:05:48;24.10;43.50
77985;DHT22;67177;47.240;-1.546;2023-07-13T15:08:15;24.10;43.40
77985;DHT22;67177;47.240;-1.546;2023-07-13T15:10:41;24.00;43.30
77985;DHT22;67177;47.240;-1.546;2023-07-13T15:13:20;24.00;43.40
77985;DHT22;67177;47.240;-1.546;2023-07-13T15:15:49;24.00;43.50
77985;DHT22;67177;47.240;-1.546;2023-07-13T15:18:17;24.00;43.50
77985;DHT22;67177;47.240;-1.546;2023-07-13T15:20:45;24.00;43.50
77985;DHT22;67177;47.240;-1.546;2023-07-13T15:23:12;24.00;43.80
77985;DHT22;67177;47.240;-1.546;2023-07-13T15:25:38;23.90;43.90
77985;DHT22;67177;47.240;-1.546;2023-07-13T15:28:04;23.90;44.00
77985;DHT22;67177;47.240;-1.546;2023-07-13T15:30:34;23.90;43.80
77985;DHT22;67177;47.240;-1.546;2023-07-13T15:33:12;23.90;44.00
77985;DHT22;67177;47.240;-1.546;2023-07-13T15:35:39;23.90;44.10
77985;DHT22;67177;47.240;-1.546;2023-07-13T15:38:29;23.90;44.10
77985;DHT22;67177;47.240;-1.546;2023-07-13T15:40:55;23.90;43.70
77985;DHT22;67177;47.240;-1.546;2023-07-13T15:43:22;24.00;43.70
77985;DHT22;67177;47.240;-1.546;2023-07-13T15:45:48;24.00;43.20
77985;DHT22;67177;47.240;-1.546;2023-07-13T15:48:22;24.00;43.40
77985;DHT22;67177;47.240;-1.546;2023-07-13T15:50:50;24.00;43.50
77985;DHT22;67177;47.240;-1.546;2023-07-13T15:53:30;24.00;43.40
77985;DHT22;67177;47.240;-1.546;2023-07-13T15:55:57;24.10;43.20
77985;DHT22;67177;47.240;-1.546;2023-07-13T15:58:23;24.10;43.10
77985;DHT22;67177;47.240;-1.546;2023-07-13T16:00:50;24.00;43.30